sensor_id;sensor_type;location;lat;lon;timestamp;P1;durP1;ratioP1;P2;durP2;ratioP2
26806;SDS011;14380;49.910;6.792;2023-04-24T00:02:11;1.48;;;0.55;;
26806;SDS011;14380;49.910;6.792;2023-04-24T00:04:37;3.72;;;0.55;;
26806;SDS011;14380;49.910;6.792;2023-04-24T00:07:05;0.35;;;0.35;;
26806;SDS011;14380;49.910;6.792;2023-04-24T00:09:31;1.60;;;0.55;;
26806;SDS011;14380;49.910;6.792;2023-04-24T00:11:58;1.00;;;0.50;;
26806;SDS011;14380;49.910;6.792;2023-04-24T00:14:25;0.40;;;0.30;;
26806;SDS011;14380;49.910;6.792;2023-04-24T00:16:53;2.05;;;0.40;;
26806;SDS011;14380;49.910;6.792;2023-04-24T00:19:19;1.67;;;0.50;;
26806;SDS011;14380;49.910;6.792;2023-04-24T00:21:47;1.65;;;0.50;;
26806;SDS011;14380;49.910;6.792;2023-04-24T00:24:15;1.70;;;0.50;;
26806;SDS011;14380;49.910;6.792;2023-04-24T00:26:41;2.42;;;0.70;;
26806;SDS011;14380;49.910;6.792;2023-04-24T00:29:08;1.38;;;0.70;;
26806;SDS011;14380;49.910;6.792;2023-04-24T00:31:34;1.15;;;0.80;;
26806;SDS011;14380;49.910;6.792;2023-04-24T00:34:02;1.17;;;0.50;;
26806;SDS011;14380;49.910;6.792;2023-04-24T00:36:29;1.80;;;0.50;;
26806;SDS011;14380;49.910;6.792;2023-04-24T00:38:57;1.27;;;0.80;;
26806;SDS011;14380;49.910;6.792;2023-04-24T00:41:24;1.95;;;0.82;;
26806;SDS011;14380;49.910;6.792;2023-04-24T00:43:51;1.65;;;0.85;;
26806;SDS011;14380;49.910;6.792;2023-04-24T00:46:18;1.80;;;0.80;;
26806;SDS011;14380;49.910;6.792;2023-04-24T00:48:45;0.85;;;0.80;;
26806;SDS011;14380;49.910;6.792;2023-04-24T00:51:14;2.85;;;0.80;;
26806;SDS011;14380;49.910;6.792;2023-04-24T00:53:40;1.52;;;1.33;;
26806;SDS011;14380;49.910;6.792;2023-04-24T00:56:07;0.90;;;0.80;;
26806;SDS011;14380;49.910;6.792;2023-04-24T00:58:33;1.60;;;0.80;;
26806;SDS011;14380;49.910;6.792;2023-04-24T01:01:00;2.03;;;1.13;;
26806;SDS011;14380;49.910;6.792;2023-04-24T01:03:32;1.27;;;1.05;;
26806;SDS011;14380;49.910;6.792;2023-04-24T01:05:59;1.50;;;0.93;;
26806;SDS011;14380;49.910;6.792;2023-04-24T01:08:28;2.45;;;1.35;;
26806;SDS011;14380;49.910;6.792;2023-04-24T01:10:55;3.30;;;1.60;;
26806;SDS011;14380;49.910;6.792;2023-04-24T01:13:23;5.35;;;1.48;;
26806;SDS011;14380;49.910;6.792;2023-04-24T01:15:50;3.05;;;2.28;;
26806;SDS011;14380;49.910;6.792;2023-04-24T01:18:17;2.55;;;2.30;;
26806;SDS011;14380;49.910;6.792;2023-04-24T01:20:43;4.45;;;2.20;;
26806;SDS011;14380;49.910;6.792;2023-04-24T01:23:13;4.80;;;2.35;;
26806;SDS011;14380;49.910;6.792;2023-04-24T01:25:40;3.22;;;2.15;;
26806;SDS011;14380;49.910;6.792;2023-04-24T01:28:06;6.18;;;2.20;;
26806;SDS011;14380;49.910;6.792;2023-04-24T01:30:33;2.85;;;2.00;;
26806;SDS011;14380;49.910;6.792;2023-04-24T01:33:00;2.63;;;2.33;;
26806;SDS011;14380;49.910;6.792;2023-04-24T01:35:27;3.08;;;2.17;;
26806;SDS011;14380;49.910;6.792;2023-04-24T01:37:54;5.03;;;2.72;;
26806;SDS011;14380;49.910;6.792;2023-04-24T01:40:22;6.22;;;2.45;;
26806;SDS011;14380;49.910;6.792;2023-04-24T01:42:49;3.15;;;2.67;;
26806;SDS011;14380;49.910;6.792;2023-04-24T01:45:15;2.63;;;2.38;;
26806;SDS011;14380;49.910;6.792;2023-04-24T01:47:42;9.73;;;3.28;;
26806;SDS011;14380;49.910;6.792;2023-04-24T01:50:10;3.47;;;2.70;;
26806;SDS011;14380;49.910;6.792;2023-04-24T01:52:36;5.13;;;2.70;;
26806;SDS011;14380;49.910;6.792;2023-04-24T01:55:03;6.18;;;3.13;;
26806;SDS011;14380;49.910;6.792;2023-04-24T01:57:32;6.55;;;3.50;;
26806;SDS011;14380;49.910;6.792;2023-04-24T01:59:59;3.28;;;2.95;;
26806;SDS011;14380;49.910;6.792;2023-04-24T02:02:25;6.68;;;3.38;;
26806;SDS011;14380;49.910;6.792;2023-04-24T02:04:53;4.38;;;3.42;;
26806;SDS011;14380;49.910;6.792;2023-04-24T02:07:20;4.03;;;2.70;;
26806;SDS011;14380;49.910;6.792;2023-04-24T02:09:46;4.00;;;3.17;;
26806;SDS011;14380;49.910;6.792;2023-04-24T02:12:13;5.05;;;3.38;;
26806;SDS011;14380;49.910;6.792;2023-04-24T02:14:41;3.85;;;3.08;;
26806;SDS011;14380;49.910;6.792;2023-04-24T02:17:08;6.25;;;2.95;;
26806;SDS011;14380;49.910;6.792;2023-04-24T02:19:35;5.22;;;2.80;;
26806;SDS011;14380;49.910;6.792;2023-04-24T02:22:01;4.05;;;2.92;;
26806;SDS011;14380;49.910;6.792;2023-04-24T02:24:28;7.55;;;3.22;;
26806;SDS011;14380;49.910;6.792;2023-04-24T02:26:54;6.82;;;3.42;;
26806;SDS011;14380;49.910;6.792;2023-04-24T02:29:21;7.47;;;3.30;;
26806;SDS011;14380;49.910;6.792;2023-04-24T02:31:49;4.90;;;3.60;;
26806;SDS011;14380;49.910;6.792;2023-04-24T02:34:15;3.92;;;3.33;;
26806;SDS011;14380;49.910;6.792;2023-04-24T02:36:42;5.95;;;3.33;;
26806;SDS011;14380;49.910;6.792;2023-04-24T02:39:08;6.10;;;3.60;;
26806;SDS011;14380;49.910;6.792;2023-04-24T02:41:35;6.38;;;3.88;;
26806;SDS011;14380;49.910;6.792;2023-04-24T02:44:02;4.40;;;3.85;;
26806;SDS011;14380;49.910;6.792;2023-04-24T02:46:28;7.97;;;3.22;;
26806;SDS011;14380;49.910;6.792;2023-04-24T02:48:56;5.45;;;4.07;;
26806;SDS011;14380;49.910;6.792;2023-04-24T02:51:23;4.07;;;3.67;;
26806;SDS011;14380;49.910;6.792;2023-04-24T02:53:50;7.18;;;4.20;;
26806;SDS011;14380;49.910;6.792;2023-04-24T02:56:16;8.15;;;5.38;;
26806;SDS011;14380;49.910;6.792;2023-04-24T02:58:43;7.90;;;4.78;;
26806;SDS011;14380;49.910;6.792;2023-04-24T03:01:09;16.52;;;4.90;;
26806;SDS011;14380;49.910;6.792;2023-04-24T03:03:36;7.43;;;4.90;;
26806;SDS011;14380;49.910;6.792;2023-04-24T03:06:04;7.43;;;4.88;;
26806;SDS011;14380;49.910;6.792;2023-04-24T03:08:32;6.00;;;4.65;;
26806;SDS011;14380;49.910;6.792;2023-04-24T03:10:59;6.60;;;4.75;;
26806;SDS011;14380;49.910;6.792;2023-04-24T03:13:26;6.90;;;5.07;;
26806;SDS011;14380;49.910;6.792;2023-04-24T03:15:53;10.48;;;5.95;;
26806;SDS011;14380;49.910;6.792;2023-04-24T03:18:19;7.28;;;5.30;;
26806;SDS011;14380;49.910;6.792;2023-04-24T03:20:46;9.98;;;5.72;;
26806;SDS011;14380;49.910;6.792;2023-04-24T03:23:15;13.30;;;5.97;;
26806;SDS011;14380;49.910;6.792;2023-04-24T03:25:42;7.40;;;5.47;;
26806;SDS011;14380;49.910;6.792;2023-04-24T03:28:08;9.57;;;6.88;;
26806;SDS011;14380;49.910;6.792;2023-04-24T03:30:35;11.73;;;7.55;;
26806;SDS011;14380;49.910;6.792;2023-04-24T03:33:01;7.43;;;6.30;;
26806;SDS011;14380;49.910;6.792;2023-04-24T03:35:28;9.07;;;7.10;;
26806;SDS011;14380;49.910;6.792;2023-04-24T03:37:55;9.68;;;7.45;;
26806;SDS011;14380;49.910;6.792;2023-04-24T03:40:23;11.15;;;7.82;;
26806;SDS011;14380;49.910;6.792;2023-04-24T03:42:49;8.90;;;7.80;;
26806;SDS011;14380;49.910;6.792;2023-04-24T03:45:16;12.68;;;8.15;;
26806;SDS011;14380;49.910;6.792;2023-04-24T03:47:42;11.13;;;8.00;;
26806;SDS011;14380;49.910;6.792;2023-04-24T03:50:09;13.63;;;8.50;;
26806;SDS011;14380;49.910;6.792;2023-04-24T03:52:36;12.00;;;7.93;;
26806;SDS011;14380;49.910;6.792;2023-04-24T03:55:02;12.65;;;8.30;;
26806;SDS011;14380;49.910;6.792;2023-04-24T03:57:31;12.45;;;8.43;;
26806;SDS011;14380;49.910;6.792;2023-04-24T03:59:57;15.40;;;8.38;;
26806;SDS011;14380;49.910;6.792;2023-04-24T04:02:24;13.20;;;8.57;;
26806;SDS011;14380;49.910;6.792;2023-04-24T04:04:50;10.68;;;7.65;;
26806;SDS011;14380;49.910;6.792;2023-04-24T04:07:17;11.13;;;8.02;;
26806;SDS011;14380;49.910;6.792;2023-04-24T04:09:43;11.93;;;8.05;;
26806;SDS011;14380;49.910;6.792;2023-04-24T04:12:10;16.02;;;8.43;;
26806;SDS011;14380;49.910;6.792;2023-04-24T04:14:39;11.50;;;8.20;;
26806;SDS011;14380;49.910;6.792;2023-04-24T04:17:05;10.85;;;7.32;;
26806;SDS011;14380;49.910;6.792;2023-04-24T04:19:32;14.43;;;8.50;;
26806;SDS011;14380;49.910;6.792;2023-04-24T04:21:58;12.18;;;7.63;;
26806;SDS011;14380;49.910;6.792;2023-04-24T04:24:25;11.80;;;8.38;;
26806;SDS011;14380;49.910;6.792;2023-04-24T04:26:51;12.48;;;8.63;;
26806;SDS011;14380;49.910;6.792;2023-04-24T04:29:21;10.68;;;7.72;;
26806;SDS011;14380;49.910;6.792;2023-04-24T04:31:50;12.10;;;7.93;;
26806;SDS011;14380;49.910;6.792;2023-04-24T04:34:16;12.45;;;8.45;;
26806;SDS011;14380;49.910;6.792;2023-04-24T04:36:43;10.98;;;7.97;;
26806;SDS011;14380;49.910;6.792;2023-04-24T04:39:11;11.63;;;8.10;;
26806;SDS011;14380;49.910;6.792;2023-04-24T04:41:39;12.82;;;9.65;;
26806;SDS011;14380;49.910;6.792;2023-04-24T04:44:06;11.23;;;8.80;;
26806;SDS011;14380;49.910;6.792;2023-04-24T04:46:33;12.40;;;8.65;;
26806;SDS011;14380;49.910;6.792;2023-04-24T04:49:03;11.35;;;8.73;;
26806;SDS011;14380;49.910;6.792;2023-04-24T04:51:30;14.10;;;9.38;;
26806;SDS011;14380;49.910;6.792;2023-04-24T04:53:57;13.98;;;10.43;;
26806;SDS011;14380;49.910;6.792;2023-04-24T04:56:23;15.75;;;10.68;;
26806;SDS011;14380;49.910;6.792;2023-04-24T04:58:50;11.13;;;9.57;;
26806;SDS011;14380;49.910;6.792;2023-04-24T05:01:17;13.65;;;9.43;;
26806;SDS011;14380;49.910;6.792;2023-04-24T05:03:44;12.32;;;9.00;;
26806;SDS011;14380;49.910;6.792;2023-04-24T05:06:11;13.35;;;9.55;;
26806;SDS011;14380;49.910;6.792;2023-04-24T05:08:38;12.35;;;8.82;;
26806;SDS011;14380;49.910;6.792;2023-04-24T05:11:05;12.00;;;8.95;;
26806;SDS011;14380;49.910;6.792;2023-04-24T05:13:32;13.20;;;8.82;;
26806;SDS011;14380;49.910;6.792;2023-04-24T05:15:58;11.40;;;8.80;;
26806;SDS011;14380;49.910;6.792;2023-04-24T05:18:25;11.27;;;8.35;;
26806;SDS011;14380;49.910;6.792;2023-04-24T05:20:52;11.93;;;7.93;;
26806;SDS011;14380;49.910;6.792;2023-04-24T05:23:19;13.60;;;8.95;;
26806;SDS011;14380;49.910;6.792;2023-04-24T05:25:46;12.93;;;9.15;;
26806;SDS011;14380;49.910;6.792;2023-04-24T05:28:12;12.88;;;8.55;;
26806;SDS011;14380;49.910;6.792;2023-04-24T05:30:40;13.90;;;9.50;;
26806;SDS011;14380;49.910;6.792;2023-04-24T05:33:06;18.58;;;10.45;;
26806;SDS011;14380;49.910;6.792;2023-04-24T05:35:33;12.52;;;9.40;;
26806;SDS011;14380;49.910;6.792;2023-04-24T05:38:00;10.40;;;8.38;;
26806;SDS011;14380;49.910;6.792;2023-04-24T05:40:28;9.65;;;8.65;;
26806;SDS011;14380;49.910;6.792;2023-04-24T05:42:54;14.88;;;9.68;;
26806;SDS011;14380;49.910;6.792;2023-04-24T05:45:21;12.15;;;8.82;;
26806;SDS011;14380;49.910;6.792;2023-04-24T05:47:47;12.70;;;8.80;;
26806;SDS011;14380;49.910;6.792;2023-04-24T05:50:16;17.33;;;9.60;;
26806;SDS011;14380;49.910;6.792;2023-04-24T05:52:42;10.80;;;7.28;;
26806;SDS011;14380;49.910;6.792;2023-04-24T05:55:09;9.70;;;7.03;;
26806;SDS011;14380;49.910;6.792;2023-04-24T05:57:37;10.25;;;6.88;;
26806;SDS011;14380;49.910;6.792;2023-04-24T06:00:04;7.97;;;6.20;;
26806;SDS011;14380;49.910;6.792;2023-04-24T06:02:33;8.00;;;6.45;;
26806;SDS011;14380;49.910;6.792;2023-04-24T06:04:59;7.95;;;6.85;;
26806;SDS011;14380;49.910;6.792;2023-04-24T06:07:26;7.85;;;5.78;;
26806;SDS011;14380;49.910;6.792;2023-04-24T06:09:53;6.55;;;5.85;;
26806;SDS011;14380;49.910;6.792;2023-04-24T06:12:19;8.50;;;5.97;;
26806;SDS011;14380;49.910;6.792;2023-04-24T06:14:47;8.55;;;6.07;;
26806;SDS011;14380;49.910;6.792;2023-04-24T06:17:14;6.95;;;5.50;;
26806;SDS011;14380;49.910;6.792;2023-04-24T06:19:41;10.32;;;6.03;;
26806;SDS011;14380;49.910;6.792;2023-04-24T06:22:08;10.07;;;6.72;;
26806;SDS011;14380;49.910;6.792;2023-04-24T06:24:34;8.88;;;6.13;;
26806;SDS011;14380;49.910;6.792;2023-04-24T06:27:01;5.88;;;5.38;;
26806;SDS011;14380;49.910;6.792;2023-04-24T06:29:28;7.25;;;5.82;;
26806;SDS011;14380;49.910;6.792;2023-04-24T06:31:56;7.20;;;5.90;;
26806;SDS011;14380;49.910;6.792;2023-04-24T06:34:22;6.95;;;5.88;;
26806;SDS011;14380;49.910;6.792;2023-04-24T06:36:49;7.57;;;5.82;;
26806;SDS011;14380;49.910;6.792;2023-04-24T06:39:16;8.70;;;6.53;;
26806;SDS011;14380;49.910;6.792;2023-04-24T06:41:42;8.57;;;6.00;;
26806;SDS011;14380;49.910;6.792;2023-04-24T06:44:09;7.72;;;6.00;;
26806;SDS011;14380;49.910;6.792;2023-04-24T06:46:35;8.25;;;5.85;;
26806;SDS011;14380;49.910;6.792;2023-04-24T06:49:03;7.35;;;5.75;;
26806;SDS011;14380;49.910;6.792;2023-04-24T06:51:30;8.00;;;5.93;;
26806;SDS011;14380;49.910;6.792;2023-04-24T06:53:58;7.53;;;5.57;;
26806;SDS011;14380;49.910;6.792;2023-04-24T06:56:25;7.63;;;5.68;;
26806;SDS011;14380;49.910;6.792;2023-04-24T06:58:53;9.07;;;5.90;;
26806;SDS011;14380;49.910;6.792;2023-04-24T07:01:20;7.65;;;5.80;;
26806;SDS011;14380;49.910;6.792;2023-04-24T07:03:46;9.27;;;5.72;;
26806;SDS011;14380;49.910;6.792;2023-04-24T07:06:14;8.45;;;6.00;;
26806;SDS011;14380;49.910;6.792;2023-04-24T07:08:42;8.48;;;6.55;;
26806;SDS011;14380;49.910;6.792;2023-04-24T07:11:09;8.80;;;6.53;;
26806;SDS011;14380;49.910;6.792;2023-04-24T07:13:35;8.68;;;6.82;;
26806;SDS011;14380;49.910;6.792;2023-04-24T07:16:06;11.50;;;6.57;;
26806;SDS011;14380;49.910;6.792;2023-04-24T07:18:33;10.90;;;7.40;;
26806;SDS011;14380;49.910;6.792;2023-04-24T07:21:00;9.57;;;7.07;;
26806;SDS011;14380;49.910;6.792;2023-04-24T07:23:28;8.35;;;6.75;;
26806;SDS011;14380;49.910;6.792;2023-04-24T07:25:55;8.88;;;7.35;;
26806;SDS011;14380;49.910;6.792;2023-04-24T07:28:22;9.50;;;7.10;;
26806;SDS011;14380;49.910;6.792;2023-04-24T07:30:49;9.85;;;6.88;;
26806;SDS011;14380;49.910;6.792;2023-04-24T07:33:18;11.40;;;6.75;;
26806;SDS011;14380;49.910;6.792;2023-04-24T07:35:45;9.15;;;7.00;;
26806;SDS011;14380;49.910;6.792;2023-04-24T07:38:12;8.52;;;6.35;;
26806;SDS011;14380;49.910;6.792;2023-04-24T07:40:40;10.10;;;7.50;;
26806;SDS011;14380;49.910;6.792;2023-04-24T07:43:06;7.55;;;6.45;;
26806;SDS011;14380;49.910;6.792;2023-04-24T07:45:33;10.80;;;6.22;;
26806;SDS011;14380;49.910;6.792;2023-04-24T07:48:02;10.00;;;6.93;;
26806;SDS011;14380;49.910;6.792;2023-04-24T07:50:28;9.52;;;6.72;;
26806;SDS011;14380;49.910;6.792;2023-04-24T07:52:55;8.93;;;5.93;;
26806;SDS011;14380;49.910;6.792;2023-04-24T07:55:21;10.20;;;6.75;;
26806;SDS011;14380;49.910;6.792;2023-04-24T07:57:49;9.35;;;6.72;;
26806;SDS011;14380;49.910;6.792;2023-04-24T08:00:17;8.35;;;6.30;;
26806;SDS011;14380;49.910;6.792;2023-04-24T08:02:44;9.73;;;5.85;;
26806;SDS011;14380;49.910;6.792;2023-04-24T08:05:11;7.72;;;5.43;;
26806;SDS011;14380;49.910;6.792;2023-04-24T08:07:38;6.18;;;4.82;;
26806;SDS011;14380;49.910;6.792;2023-04-24T08:10:05;10.45;;;4.85;;
26806;SDS011;14380;49.910;6.792;2023-04-24T08:12:32;7.78;;;4.80;;
26806;SDS011;14380;49.910;6.792;2023-04-24T08:15:00;7.53;;;5.43;;
26806;SDS011;14380;49.910;6.792;2023-04-24T08:17:27;6.82;;;5.00;;
26806;SDS011;14380;49.910;6.792;2023-04-24T08:19:53;8.02;;;4.70;;
26806;SDS011;14380;49.910;6.792;2023-04-24T08:22:26;7.07;;;5.00;;
26806;SDS011;14380;49.910;6.792;2023-04-24T08:24:53;7.25;;;5.13;;
26806;SDS011;14380;49.910;6.792;2023-04-24T08:27:21;7.65;;;4.63;;
26806;SDS011;14380;49.910;6.792;2023-04-24T08:29:47;4.70;;;4.30;;
26806;SDS011;14380;49.910;6.792;2023-04-24T08:32:15;5.97;;;4.28;;
26806;SDS011;14380;49.910;6.792;2023-04-24T08:34:42;6.28;;;5.20;;
26806;SDS011;14380;49.910;6.792;2023-04-24T08:37:09;6.47;;;5.25;;
26806;SDS011;14380;49.910;6.792;2023-04-24T08:39:36;6.60;;;4.78;;
26806;SDS011;14380;49.910;6.792;2023-04-24T08:42:03;6.05;;;4.60;;
26806;SDS011;14380;49.910;6.792;2023-04-24T08:44:33;6.85;;;5.30;;
26806;SDS011;14380;49.910;6.792;2023-04-24T08:47:01;7.45;;;5.63;;
26806;SDS011;14380;49.910;6.792;2023-04-24T08:49:29;8.23;;;6.22;;
26806;SDS011;14380;49.910;6.792;2023-04-24T08:51:57;9.65;;;5.45;;
26806;SDS011;14380;49.910;6.792;2023-04-24T08:54:24;8.48;;;5.60;;
26806;SDS011;14380;49.910;6.792;2023-04-24T08:56:51;9.85;;;5.40;;
26806;SDS011;14380;49.910;6.792;2023-04-24T08:59:24;7.25;;;5.65;;
26806;SDS011;14380;49.910;6.792;2023-04-24T09:01:51;6.03;;;5.03;;
26806;SDS011;14380;49.910;6.792;2023-04-24T09:04:18;8.88;;;6.05;;
26806;SDS011;14380;49.910;6.792;2023-04-24T09:06:50;8.50;;;5.25;;
26806;SDS011;14380;49.910;6.792;2023-04-24T09:09:17;7.30;;;5.97;;
26806;SDS011;14380;49.910;6.792;2023-04-24T09:11:44;8.43;;;5.75;;
26806;SDS011;14380;49.910;6.792;2023-04-24T09:14:11;11.48;;;6.38;;
26806;SDS011;14380;49.910;6.792;2023-04-24T09:16:37;7.15;;;5.70;;
26806;SDS011;14380;49.910;6.792;2023-04-24T09:19:04;9.48;;;6.97;;
26806;SDS011;14380;49.910;6.792;2023-04-24T09:21:31;9.65;;;6.93;;
26806;SDS011;14380;49.910;6.792;2023-04-24T09:24:01;9.82;;;6.68;;
26806;SDS011;14380;49.910;6.792;2023-04-24T09:26:30;9.20;;;6.93;;
26806;SDS011;14380;49.910;6.792;2023-04-24T09:28:58;9.68;;;7.07;;
26806;SDS011;14380;49.910;6.792;2023-04-24T09:31:26;12.05;;;7.95;;
26806;SDS011;14380;49.910;6.792;2023-04-24T09:33:55;11.88;;;9.02;;
26806;SDS011;14380;49.910;6.792;2023-04-24T09:36:28;7.95;;;6.18;;
26806;SDS011;14380;49.910;6.792;2023-04-24T09:38:58;9.53;;;6.93;;
26806;SDS011;14380;49.910;6.792;2023-04-24T09:41:28;7.38;;;5.40;;
26806;SDS011;14380;49.910;6.792;2023-04-24T09:43:55;6.57;;;4.80;;
26806;SDS011;14380;49.910;6.792;2023-04-24T09:46:29;6.25;;;4.95;;
26806;SDS011;14380;49.910;6.792;2023-04-24T09:48:57;5.43;;;4.45;;
26806;SDS011;14380;49.910;6.792;2023-04-24T09:51:33;8.23;;;4.95;;
26806;SDS011;14380;49.910;6.792;2023-04-24T09:54:03;8.48;;;5.18;;
26806;SDS011;14380;49.910;6.792;2023-04-24T09:56:32;6.80;;;4.72;;
26806;SDS011;14380;49.910;6.792;2023-04-24T09:59:04;5.97;;;5.38;;
26806;SDS011;14380;49.910;6.792;2023-04-24T10:01:31;7.97;;;4.90;;
26806;SDS011;14380;49.910;6.792;2023-04-24T10:03:58;8.10;;;5.47;;
26806;SDS011;14380;49.910;6.792;2023-04-24T10:06:29;5.57;;;4.65;;
26806;SDS011;14380;49.910;6.792;2023-04-24T10:09:00;7.70;;;4.75;;
26806;SDS011;14380;49.910;6.792;2023-04-24T10:11:30;6.47;;;4.45;;
26806;SDS011;14380;49.910;6.792;2023-04-24T10:13:56;5.00;;;4.10;;
26806;SDS011;14380;49.910;6.792;2023-04-24T10:16:24;7.53;;;4.90;;
26806;SDS011;14380;49.910;6.792;2023-04-24T10:18:52;6.72;;;4.50;;
26806;SDS011;14380;49.910;6.792;2023-04-24T10:21:19;10.23;;;4.72;;
26806;SDS011;14380;49.910;6.792;2023-04-24T10:23:45;7.70;;;4.28;;
26806;SDS011;14380;49.910;6.792;2023-04-24T10:26:12;11.82;;;4.88;;
26806;SDS011;14380;49.910;6.792;2023-04-24T10:28:43;8.77;;;6.13;;
26806;SDS011;14380;49.910;6.792;2023-04-24T10:31:12;7.60;;;5.57;;
26806;SDS011;14380;49.910;6.792;2023-04-24T10:33:39;6.97;;;5.32;;
26806;SDS011;14380;49.910;6.792;2023-04-24T10:36:07;9.57;;;5.65;;
26806;SDS011;14380;49.910;6.792;2023-04-24T10:38:35;6.97;;;5.03;;
26806;SDS011;14380;49.910;6.792;2023-04-24T10:41:08;8.23;;;5.20;;
26806;SDS011;14380;49.910;6.792;2023-04-24T10:43:41;9.48;;;5.47;;
26806;SDS011;14380;49.910;6.792;2023-04-24T10:46:09;6.57;;;5.07;;
26806;SDS011;14380;49.910;6.792;2023-04-24T10:48:41;9.45;;;4.72;;
26806;SDS011;14380;49.910;6.792;2023-04-24T10:51:11;8.43;;;5.28;;
26806;SDS011;14380;49.910;6.792;2023-04-24T10:53:38;6.80;;;4.88;;
26806;SDS011;14380;49.910;6.792;2023-04-24T10:56:05;8.23;;;5.40;;
26806;SDS011;14380;49.910;6.792;2023-04-24T10:58:38;6.90;;;4.32;;
26806;SDS011;14380;49.910;6.792;2023-04-24T11:01:06;9.20;;;4.45;;
26806;SDS011;14380;49.910;6.792;2023-04-24T11:03:34;9.38;;;4.78;;
26806;SDS011;14380;49.910;6.792;2023-04-24T11:06:02;6.38;;;4.30;;
26806;SDS011;14380;49.910;6.792;2023-04-24T11:08:31;6.88;;;4.32;;
26806;SDS011;14380;49.910;6.792;2023-04-24T11:11:03;8.75;;;5.03;;
26806;SDS011;14380;49.910;6.792;2023-04-24T11:16:34;8.00;;;5.10;;
26806;SDS011;14380;49.910;6.792;2023-04-24T11:19:05;7.13;;;4.90;;
26806;SDS011;14380;49.910;6.792;2023-04-24T11:21:40;6.55;;;4.85;;
26806;SDS011;14380;49.910;6.792;2023-04-24T11:24:26;6.80;;;4.40;;
26806;SDS011;14380;49.910;6.792;2023-04-24T11:26:56;7.30;;;4.30;;
26806;SDS011;14380;49.910;6.792;2023-04-24T11:29:37;8.55;;;4.82;;
26806;SDS011;14380;49.910;6.792;2023-04-24T11:32:14;7.28;;;4.22;;
26806;SDS011;14380;49.910;6.792;2023-04-24T11:34:50;7.55;;;4.38;;
26806;SDS011;14380;49.910;6.792;2023-04-24T11:37:18;11.75;;;5.20;;
26806;SDS011;14380;49.910;6.792;2023-04-24T11:39:44;8.20;;;4.78;;
26806;SDS011;14380;49.910;6.792;2023-04-24T11:42:12;5.78;;;4.10;;
26806;SDS011;14380;49.910;6.792;2023-04-24T11:44:40;9.82;;;5.15;;
26806;SDS011;14380;49.910;6.792;2023-04-24T11:47:08;8.40;;;4.63;;
26806;SDS011;14380;49.910;6.792;2023-04-24T11:49:36;6.13;;;4.60;;
26806;SDS011;14380;49.910;6.792;2023-04-24T11:52:04;7.78;;;5.05;;
26806;SDS011;14380;49.910;6.792;2023-04-24T11:54:31;8.05;;;4.45;;
26806;SDS011;14380;49.910;6.792;2023-04-24T11:56:58;10.77;;;4.00;;
26806;SDS011;14380;49.910;6.792;2023-04-24T11:59:24;8.32;;;5.47;;
26806;SDS011;14380;49.910;6.792;2023-04-24T12:01:51;5.82;;;4.53;;
26806;SDS011;14380;49.910;6.792;2023-04-24T12:04:18;4.88;;;3.50;;
26806;SDS011;14380;49.910;6.792;2023-04-24T12:07:00;6.45;;;3.97;;
26806;SDS011;14380;49.910;6.792;2023-04-24T12:09:28;7.20;;;4.25;;
26806;SDS011;14380;49.910;6.792;2023-04-24T12:11:55;10.45;;;4.28;;
26806;SDS011;14380;49.910;6.792;2023-04-24T12:14:23;7.00;;;4.70;;
26806;SDS011;14380;49.910;6.792;2023-04-24T12:16:49;5.43;;;4.70;;
26806;SDS011;14380;49.910;6.792;2023-04-24T12:19:17;8.52;;;4.70;;
26806;SDS011;14380;49.910;6.792;2023-04-24T12:21:57;8.50;;;4.65;;
26806;SDS011;14380;49.910;6.792;2023-04-24T12:24:25;7.03;;;4.85;;
26806;SDS011;14380;49.910;6.792;2023-04-24T12:26:53;8.77;;;5.03;;
26806;SDS011;14380;49.910;6.792;2023-04-24T12:29:20;7.05;;;4.95;;
26806;SDS011;14380;49.910;6.792;2023-04-24T12:31:47;6.18;;;5.38;;
26806;SDS011;14380;49.910;6.792;2023-04-24T12:34:17;12.85;;;5.57;;
26806;SDS011;14380;49.910;6.792;2023-04-24T12:36:45;8.68;;;5.30;;
26806;SDS011;14380;49.910;6.792;2023-04-24T12:39:14;8.52;;;6.32;;
26806;SDS011;14380;49.910;6.792;2023-04-24T12:41:49;7.57;;;6.10;;
26806;SDS011;14380;49.910;6.792;2023-04-24T12:44:18;8.52;;;5.70;;
26806;SDS011;14380;49.910;6.792;2023-04-24T12:46:44;9.80;;;5.55;;
26806;SDS011;14380;49.910;6.792;2023-04-24T12:49:11;8.95;;;4.90;;
26806;SDS011;14380;49.910;6.792;2023-04-24T12:51:38;8.55;;;5.45;;
26806;SDS011;14380;49.910;6.792;2023-04-24T12:54:04;11.15;;;5.57;;
26806;SDS011;14380;49.910;6.792;2023-04-24T12:56:31;11.50;;;5.70;;
26806;SDS011;14380;49.910;6.792;2023-04-24T12:58:57;8.60;;;5.15;;
26806;SDS011;14380;49.910;6.792;2023-04-24T13:01:25;7.50;;;6.28;;
26806;SDS011;14380;49.910;6.792;2023-04-24T13:03:52;11.13;;;6.13;;
26806;SDS011;14380;49.910;6.792;2023-04-24T13:06:19;9.18;;;5.55;;
26806;SDS011;14380;49.910;6.792;2023-04-24T13:08:46;10.98;;;6.03;;
26806;SDS011;14380;49.910;6.792;2023-04-24T13:11:13;9.40;;;5.70;;
26806;SDS011;14380;49.910;6.792;2023-04-24T13:13:40;6.20;;;5.60;;
26806;SDS011;14380;49.910;6.792;2023-04-24T13:16:06;10.95;;;6.82;;
26806;SDS011;14380;49.910;6.792;2023-04-24T13:18:34;9.27;;;5.40;;
26806;SDS011;14380;49.910;6.792;2023-04-24T13:21:01;10.55;;;6.65;;
26806;SDS011;14380;49.910;6.792;2023-04-24T13:23:27;9.15;;;6.00;;
26806;SDS011;14380;49.910;6.792;2023-04-24T13:25:54;7.82;;;5.85;;
26806;SDS011;14380;49.910;6.792;2023-04-24T13:28:22;9.93;;;5.65;;
26806;SDS011;14380;49.910;6.792;2023-04-24T13:30:49;8.35;;;5.07;;
26806;SDS011;14380;49.910;6.792;2023-04-24T13:33:16;6.60;;;4.80;;
26806;SDS011;14380;49.910;6.792;2023-04-24T13:35:44;7.72;;;5.07;;
26806;SDS011;14380;49.910;6.792;2023-04-24T13:38:10;8.07;;;4.63;;
26806;SDS011;14380;49.910;6.792;2023-04-24T13:40:37;8.20;;;4.28;;
26806;SDS011;14380;49.910;6.792;2023-04-24T13:43:03;8.38;;;4.78;;
26806;SDS011;14380;49.910;6.792;2023-04-24T13:45:30;8.30;;;4.20;;
26806;SDS011;14380;49.910;6.792;2023-04-24T13:47:56;7.07;;;4.47;;
26806;SDS011;14380;49.910;6.792;2023-04-24T13:50:23;6.20;;;3.85;;
26806;SDS011;14380;49.910;6.792;2023-04-24T13:52:51;6.03;;;4.35;;
26806;SDS011;14380;49.910;6.792;2023-04-24T13:55:19;6.70;;;3.72;;
26806;SDS011;14380;49.910;6.792;2023-04-24T13:57:45;5.72;;;3.95;;
26806;SDS011;14380;49.910;6.792;2023-04-24T14:00:12;7.22;;;5.20;;
26806;SDS011;14380;49.910;6.792;2023-04-24T14:02:40;8.55;;;4.22;;
26806;SDS011;14380;49.910;6.792;2023-04-24T14:05:06;7.57;;;4.63;;
26806;SDS011;14380;49.910;6.792;2023-04-24T14:07:34;7.75;;;4.68;;
26806;SDS011;14380;49.910;6.792;2023-04-24T14:10:02;7.63;;;4.10;;
26806;SDS011;14380;49.910;6.792;2023-04-24T14:12:30;6.18;;;4.10;;
26806;SDS011;14380;49.910;6.792;2023-04-24T14:14:56;6.82;;;4.40;;
26806;SDS011;14380;49.910;6.792;2023-04-24T14:17:23;6.78;;;4.05;;
26806;SDS011;14380;49.910;6.792;2023-04-24T14:19:49;4.22;;;3.75;;
26806;SDS011;14380;49.910;6.792;2023-04-24T14:22:16;8.73;;;4.78;;
26806;SDS011;14380;49.910;6.792;2023-04-24T14:24:43;7.47;;;4.70;;
26806;SDS011;14380;49.910;6.792;2023-04-24T14:27:11;6.55;;;3.58;;
26806;SDS011;14380;49.910;6.792;2023-04-24T14:29:38;8.30;;;4.32;;
26806;SDS011;14380;49.910;6.792;2023-04-24T14:32:04;4.53;;;3.20;;
26806;SDS011;14380;49.910;6.792;2023-04-24T14:34:31;4.22;;;3.47;;
26806;SDS011;14380;49.910;6.792;2023-04-24T14:36:58;4.95;;;3.50;;
26806;SDS011;14380;49.910;6.792;2023-04-24T14:39:24;4.03;;;3.05;;
26806;SDS011;14380;49.910;6.792;2023-04-24T14:41:51;6.15;;;3.00;;
26806;SDS011;14380;49.910;6.792;2023-04-24T14:44:19;4.80;;;3.00;;
26806;SDS011;14380;49.910;6.792;2023-04-24T14:46:45;5.90;;;2.90;;
26806;SDS011;14380;49.910;6.792;2023-04-24T14:49:12;5.93;;;3.92;;
26806;SDS011;14380;49.910;6.792;2023-04-24T14:51:39;3.65;;;3.15;;